Etusivu
METAR-TAF:

METAR-TAF

Lentoasemat :

Marshfield Municipal Airport

Marshfield, Wisconsin, Yhdysvallat

Leveyspiiri: 44-38-17N, Pituuspiiri: 090-11-15W, korkeus merenpinnasta: 389 m

Tämänhetkinen sää

Tämä raportti tehtiin 34 minuuttia sitten, kello 11.54 UTC
Tuuli 6 kn pohjoisesta
Lämpötila -5°C
Kosteus 86%
Ilmanpaine 1013 hPa
Näkyvyys: 16.1 km
selkeää

METAR: KMFI 241154Z AUTO 35006KT 10SM CLR M05/M07 A2992 RMK AO2 SLP147 T10501072 11011 21067 51009

Aika: 06:28 (12:28 UTC)


TAF: puuttuu

Säähavainnot ja -ennusteet yli 4000 lentoasemalta (METAR- ja TAF-raportit).

Käytössä olevat sääasemat on merkitty karttaan keltaisilla ja punaisilla pisteillä.

Aseta hiiri pisteen päälle nähdäksesi sääaseman nimen.

Klikkaa sitten nähdäksesi säähavainnot ja -ennusteet.

Kartan vaihtaminen: klikkaa mustalla rastilla varustettuja vihreitä pisteitä, niin voit zoomata sisään; viivalla varustettua vihreää pistettä, niin voit zoomata ulos tai vihreitä nuolia, niin pääset viereisille kartoille.


METAR-TAF: